sensor_id;sensor_type;location;lat;lon;timestamp;pressure;altitude;pressure_sealevel;temperature;humidity
21109;BME280;10712;52.944;9.098;2023-12-14T00:02:09;100748.72;;;12.25;74.21
21109;BME280;10712;52.944;9.098;2023-12-14T00:04:34;100758.25;;;12.29;73.80
21109;BME280;10712;52.944;9.098;2023-12-14T00:07:00;100754.22;;;12.09;74.36
21109;BME280;10712;52.944;9.098;2023-12-14T00:09:26;100763.41;;;12.18;73.76
21109;BME280;10712;52.944;9.098;2023-12-14T00:11:52;100771.34;;;12.19;73.68
21109;BME280;10712;52.944;9.098;2023-12-14T00:14:18;100775.81;;;12.19;73.68
21109;BME280;10712;52.944;9.098;2023-12-14T00:16:44;100781.94;;;12.21;73.61
21109;BME280;10712;52.944;9.098;2023-12-14T00:19:09;100779.44;;;12.18;73.66
21109;BME280;10712;52.944;9.098;2023-12-14T00:21:35;100786.72;;;12.16;73.66
21109;BME280;10712;52.944;9.098;2023-12-14T00:24:01;100792.72;;;12.19;73.67
21109;BME280;10712;52.944;9.098;2023-12-14T00:26:27;100801.59;;;12.06;73.82
21109;BME280;10712;52.944;9.098;2023-12-14T00:28:52;100803.81;;;11.85;74.03
21109;BME280;10712;52.944;9.098;2023-12-14T00:31:18;100806.41;;;11.87;73.97
21109;BME280;10712;52.944;9.098;2023-12-14T00:33:44;100819.66;;;12.02;73.42
21109;BME280;10712;52.944;9.098;2023-12-14T00:36:17;100819.72;;;12.01;73.55
21109;BME280;10712;52.944;9.098;2023-12-14T00:38:43;100820.97;;;11.95;73.72
21109;BME280;10712;52.944;9.098;2023-12-14T00:41:09;100824.88;;;11.90;73.61
21109;BME280;10712;52.944;9.098;2023-12-14T00:43:35;100824.59;;;11.94;73.39
21109;BME280;10712;52.944;9.098;2023-12-14T00:46:03;100827.38;;;11.93;73.52
21109;BME280;10712;52.944;9.098;2023-12-14T00:48:28;100840.31;;;11.99;73.46
21109;BME280;10712;52.944;9.098;2023-12-14T00:50:54;100845.28;;;11.91;73.90
21109;BME280;10712;52.944;9.098;2023-12-14T00:53:20;100851.56;;;12.04;73.34
21109;BME280;10712;52.944;9.098;2023-12-14T00:55:46;100848.72;;;11.93;73.87
21109;BME280;10712;52.944;9.098;2023-12-14T00:58:12;100847.56;;;11.97;73.59
21109;BME280;10712;52.944;9.098;2023-12-14T01:00:42;100841.56;;;12.07;73.17
21109;BME280;10712;52.944;9.098;2023-12-14T01:03:08;100845.19;;;12.06;73.13
21109;BME280;10712;52.944;9.098;2023-12-14T01:05:34;100853.97;;;12.08;73.26
21109;BME280;10712;52.944;9.098;2023-12-14T01:07:59;100856.72;;;12.07;73.23
21109;BME280;10712;52.944;9.098;2023-12-14T01:10:25;100860.63;;;12.15;73.08
21109;BME280;10712;52.944;9.098;2023-12-14T01:12:51;100865.69;;;12.06;73.43
21109;BME280;10712;52.944;9.098;2023-12-14T01:15:17;100862.63;;;11.98;73.62
21109;BME280;10712;52.944;9.098;2023-12-14T01:17:42;100867.97;;;11.98;73.35
21109;BME280;10712;52.944;9.098;2023-12-14T01:20:09;100880.75;;;11.93;73.56
21109;BME280;10712;52.944;9.098;2023-12-14T01:22:35;100888.47;;;11.97;73.32
21109;BME280;10712;52.944;9.098;2023-12-14T01:25:01;100892.69;;;11.87;73.19
21109;BME280;10712;52.944;9.098;2023-12-14T01:27:27;100901.34;;;12.05;72.68
21109;BME280;10712;52.944;9.098;2023-12-14T01:29:53;100902.69;;;12.12;72.66
21109;BME280;10712;52.944;9.098;2023-12-14T01:32:18;100907.44;;;11.93;72.85
21109;BME280;10712;52.944;9.098;2023-12-14T01:34:44;100914.44;;;12.09;72.53
21109;BME280;10712;52.944;9.098;2023-12-14T01:37:10;100908.63;;;12.03;72.48
21109;BME280;10712;52.944;9.098;2023-12-14T01:39:36;100904.63;;;12.10;72.58
21109;BME280;10712;52.944;9.098;2023-12-14T01:42:02;100909.56;;;12.02;72.75
21109;BME280;10712;52.944;9.098;2023-12-14T01:44:28;100917.75;;;11.99;72.73
21109;BME280;10712;52.944;9.098;2023-12-14T01:46:54;100920.13;;;12.03;72.69
21109;BME280;10712;52.944;9.098;2023-12-14T01:49:20;100930.94;;;12.02;72.81
21109;BME280;10712;52.944;9.098;2023-12-14T01:51:46;100928.97;;;11.90;72.90
21109;BME280;10712;52.944;9.098;2023-12-14T01:54:12;100936.53;;;11.97;72.70
21109;BME280;10712;52.944;9.098;2023-12-14T01:56:38;100935.50;;;12.00;72.75
21109;BME280;10712;52.944;9.098;2023-12-14T01:59:05;100939.22;;;12.11;72.44
21109;BME280;10712;52.944;9.098;2023-12-14T02:01:45;100940.28;;;12.09;72.31
21109;BME280;10712;52.944;9.098;2023-12-14T02:04:12;100937.78;;;12.06;72.40
21109;BME280;10712;52.944;9.098;2023-12-14T02:06:39;100944.69;;;12.10;72.52
21109;BME280;10712;52.944;9.098;2023-12-14T02:09:06;100939.41;;;12.08;72.54
21109;BME280;10712;52.944;9.098;2023-12-14T02:11:31;100940.28;;;12.09;72.35
21109;BME280;10712;52.944;9.098;2023-12-14T02:13:57;100939.13;;;12.13;72.26
21109;BME280;10712;52.944;9.098;2023-12-14T02:16:23;100934.72;;;12.12;72.32
21109;BME280;10712;52.944;9.098;2023-12-14T02:18:49;100938.34;;;12.11;72.44
21109;BME280;10712;52.944;9.098;2023-12-14T02:21:15;100948.28;;;12.09;72.49
21109;BME280;10712;52.944;9.098;2023-12-14T02:23:45;100952.00;;;12.06;72.67
21109;BME280;10712;52.944;9.098;2023-12-14T02:26:12;100952.28;;;12.02;72.73
21109;BME280;10712;52.944;9.098;2023-12-14T02:28:37;100948.84;;;12.00;72.77
21109;BME280;10712;52.944;9.098;2023-12-14T02:31:04;100948.69;;;12.03;72.54
21109;BME280;10712;52.944;9.098;2023-12-14T02:33:29;100951.81;;;12.09;72.44
21109;BME280;10712;52.944;9.098;2023-12-14T02:35:55;100948.00;;;12.13;72.48
21109;BME280;10712;52.944;9.098;2023-12-14T02:38:21;100939.41;;;12.08;72.19
21109;BME280;10712;52.944;9.098;2023-12-14T02:40:47;100933.22;;;12.08;72.16
21109;BME280;10712;52.944;9.098;2023-12-14T02:43:13;100937.38;;;11.98;72.08
21109;BME280;10712;52.944;9.098;2023-12-14T02:45:39;100955.41;;;11.94;72.09
21109;BME280;10712;52.944;9.098;2023-12-14T02:48:05;100956.75;;;11.87;71.81
21109;BME280;10712;52.944;9.098;2023-12-14T02:50:30;100965.22;;;11.79;71.96
21109;BME280;10712;52.944;9.098;2023-12-14T02:52:56;100958.34;;;11.75;71.94
21109;BME280;10712;52.944;9.098;2023-12-14T02:55:22;100967.31;;;11.74;72.00
21109;BME280;10712;52.944;9.098;2023-12-14T02:57:48;100971.06;;;11.70;72.29
21109;BME280;10712;52.944;9.098;2023-12-14T03:00:14;100990.59;;;11.71;72.18
21109;BME280;10712;52.944;9.098;2023-12-14T03:02:39;100989.56;;;11.73;72.39
21109;BME280;10712;52.944;9.098;2023-12-14T03:05:06;100997.25;;;11.79;72.35
21109;BME280;10712;52.944;9.098;2023-12-14T03:07:32;101006.03;;;11.81;72.48
21109;BME280;10712;52.944;9.098;2023-12-14T03:09:57;101004.09;;;11.83;72.68
21109;BME280;10712;52.944;9.098;2023-12-14T03:12:23;101012.53;;;11.92;72.37
21109;BME280;10712;52.944;9.098;2023-12-14T03:14:49;101016.38;;;12.02;72.38
21109;BME280;10712;52.944;9.098;2023-12-14T03:17:15;101019.41;;;11.96;72.28
21109;BME280;10712;52.944;9.098;2023-12-14T03:19:42;101024.06;;;11.92;72.68
21109;BME280;10712;52.944;9.098;2023-12-14T03:22:09;101019.22;;;11.99;72.43
21109;BME280;10712;52.944;9.098;2023-12-14T03:24:36;101028.16;;;11.98;72.42
21109;BME280;10712;52.944;9.098;2023-12-14T03:27:05;101019.28;;;11.97;72.29
21109;BME280;10712;52.944;9.098;2023-12-14T03:29:31;101025.41;;;11.99;72.20
21109;BME280;10712;52.944;9.098;2023-12-14T03:31:57;101029.91;;;11.99;72.31
21109;BME280;10712;52.944;9.098;2023-12-14T03:34:24;101036.09;;;11.99;72.07
21109;BME280;10712;52.944;9.098;2023-12-14T03:36:50;101025.34;;;12.01;72.33
21109;BME280;10712;52.944;9.098;2023-12-14T03:39:17;101034.38;;;11.98;72.42
21109;BME280;10712;52.944;9.098;2023-12-14T03:41:43;101038.69;;;12.01;72.35
21109;BME280;10712;52.944;9.098;2023-12-14T03:44:09;101041.16;;;12.04;72.44
21109;BME280;10712;52.944;9.098;2023-12-14T03:46:35;101042.13;;;12.03;72.27
21109;BME280;10712;52.944;9.098;2023-12-14T03:49:02;101042.13;;;12.03;72.45
21109;BME280;10712;52.944;9.098;2023-12-14T03:51:28;101047.63;;;12.00;72.60
21109;BME280;10712;52.944;9.098;2023-12-14T03:53:53;101046.59;;;12.02;72.46
21109;BME280;10712;52.944;9.098;2023-12-14T03:56:20;101048.59;;;11.99;72.59
21109;BME280;10712;52.944;9.098;2023-12-14T03:58:45;101055.28;;;12.06;72.54
21109;BME280;10712;52.944;9.098;2023-12-14T04:01:19;101061.41;;;12.08;72.56
21109;BME280;10712;52.944;9.098;2023-12-14T04:03:45;101056.91;;;12.08;72.49
21109;BME280;10712;52.944;9.098;2023-12-14T04:06:12;101068.63;;;12.06;72.46
21109;BME280;10712;52.944;9.098;2023-12-14T04:08:38;101065.38;;;12.01;72.47
21109;BME280;10712;52.944;9.098;2023-12-14T04:11:05;101073.81;;;12.09;72.31
21109;BME280;10712;52.944;9.098;2023-12-14T04:13:31;101070.84;;;12.13;72.28
21109;BME280;10712;52.944;9.098;2023-12-14T04:15:56;101070.19;;;12.10;71.83
21109;BME280;10712;52.944;9.098;2023-12-14T04:18:23;101079.31;;;12.06;72.18
21109;BME280;10712;52.944;9.098;2023-12-14T04:20:49;101089.84;;;12.09;72.14
21109;BME280;10712;52.944;9.098;2023-12-14T04:23:15;101085.84;;;12.16;72.05
21109;BME280;10712;52.944;9.098;2023-12-14T04:25:41;101088.59;;;12.14;72.18
21109;BME280;10712;52.944;9.098;2023-12-14T04:28:06;101097.47;;;12.15;72.10
21109;BME280;10712;52.944;9.098;2023-12-14T04:30:32;101098.59;;;12.11;72.28
21109;BME280;10712;52.944;9.098;2023-12-14T04:32:58;101098.59;;;12.11;72.42
21109;BME280;10712;52.944;9.098;2023-12-14T04:35:24;101099.09;;;12.17;71.97
21109;BME280;10712;52.944;9.098;2023-12-14T04:37:50;101096.69;;;12.13;72.10
21109;BME280;10712;52.944;9.098;2023-12-14T04:40:16;101100.16;;;12.15;71.92
21109;BME280;10712;52.944;9.098;2023-12-14T04:42:42;101107.38;;;12.13;72.01
21109;BME280;10712;52.944;9.098;2023-12-14T04:45:08;101117.69;;;12.19;71.74
21109;BME280;10712;52.944;9.098;2023-12-14T04:47:35;101116.75;;;12.20;72.04
21109;BME280;10712;52.944;9.098;2023-12-14T04:50:02;101122.09;;;12.20;71.74
21109;BME280;10712;52.944;9.098;2023-12-14T04:52:29;101132.19;;;12.15;71.99
21109;BME280;10712;52.944;9.098;2023-12-14T04:54:55;101127.38;;;12.06;72.12
21109;BME280;10712;52.944;9.098;2023-12-14T04:57:20;101143.25;;;12.09;71.73
21109;BME280;10712;52.944;9.098;2023-12-14T04:59:46;101142.13;;;11.97;71.83
21109;BME280;10712;52.944;9.098;2023-12-14T05:02:12;101148.75;;;12.06;71.31
21109;BME280;10712;52.944;9.098;2023-12-14T05:04:38;101158.25;;;11.96;71.71
21109;BME280;10712;52.944;9.098;2023-12-14T05:07:04;101161.66;;;12.13;71.41
21109;BME280;10712;52.944;9.098;2023-12-14T05:09:29;101164.97;;;12.03;71.67
21109;BME280;10712;52.944;9.098;2023-12-14T05:11:55;101166.13;;;12.13;71.37
21109;BME280;10712;52.944;9.098;2023-12-14T05:14:21;101172.19;;;12.16;71.41
21109;BME280;10712;52.944;9.098;2023-12-14T05:16:47;101169.94;;;12.09;71.49
21109;BME280;10712;52.944;9.098;2023-12-14T05:19:13;101171.47;;;12.13;71.03
21109;BME280;10712;52.944;9.098;2023-12-14T05:21:39;101167.63;;;12.03;71.44
21109;BME280;10712;52.944;9.098;2023-12-14T05:24:05;101175.19;;;12.10;71.37
21109;BME280;10712;52.944;9.098;2023-12-14T05:26:31;101182.00;;;12.16;71.41
21109;BME280;10712;52.944;9.098;2023-12-14T05:28:57;101184.66;;;12.16;71.33
21109;BME280;10712;52.944;9.098;2023-12-14T05:31:23;101187.34;;;12.16;71.19
21109;BME280;10712;52.944;9.098;2023-12-14T05:33:48;101194.56;;;12.14;71.57
21109;BME280;10712;52.944;9.098;2023-12-14T05:36:14;101197.84;;;12.19;71.49
21109;BME280;10712;52.944;9.098;2023-12-14T05:38:41;101203.19;;;12.19;71.37
21109;BME280;10712;52.944;9.098;2023-12-14T05:41:07;101206.63;;;12.21;71.36
21109;BME280;10712;52.944;9.098;2023-12-14T05:43:33;101211.78;;;12.24;71.27
21109;BME280;10712;52.944;9.098;2023-12-14T05:45:59;101218.84;;;12.25;71.35
21109;BME280;10712;52.944;9.098;2023-12-14T05:48:26;101220.56;;;12.26;71.34
21109;BME280;10712;52.944;9.098;2023-12-14T05:50:56;101219.78;;;12.24;71.32
21109;BME280;10712;52.944;9.098;2023-12-14T05:53:22;101227.63;;;12.27;71.31
21109;BME280;10712;52.944;9.098;2023-12-14T05:55:48;101223.44;;;12.23;71.49
21109;BME280;10712;52.944;9.098;2023-12-14T05:58:14;101227.81;;;12.24;71.48
21109;BME280;10712;52.944;9.098;2023-12-14T06:00:40;101236.59;;;12.26;71.47
21109;BME280;10712;52.944;9.098;2023-12-14T06:03:06;101229.53;;;12.25;71.63
21109;BME280;10712;52.944;9.098;2023-12-14T06:05:32;101236.59;;;12.26;71.39
21109;BME280;10712;52.944;9.098;2023-12-14T06:07:58;101245.41;;;12.28;71.50
21109;BME280;10712;52.944;9.098;2023-12-14T06:10:24;101248.22;;;12.25;71.63
21109;BME280;10712;52.944;9.098;2023-12-14T06:12:50;101247.13;;;12.29;71.44
21109;BME280;10712;52.944;9.098;2023-12-14T06:15:15;101245.66;;;12.23;71.77
21109;BME280;10712;52.944;9.098;2023-12-14T06:17:42;101247.28;;;12.26;71.69
21109;BME280;10712;52.944;9.098;2023-12-14T06:20:09;101253.41;;;12.28;71.72
21109;BME280;10712;52.944;9.098;2023-12-14T06:22:39;101255.13;;;12.29;71.65
21109;BME280;10712;52.944;9.098;2023-12-14T06:25:05;101266.06;;;12.24;71.80
21109;BME280;10712;52.944;9.098;2023-12-14T06:27:31;101270.38;;;12.27;71.56
21109;BME280;10712;52.944;9.098;2023-12-14T06:29:58;101266.78;;;12.28;71.65
21109;BME280;10712;52.944;9.098;2023-12-14T06:32:23;101271.16;;;12.29;71.77
21109;BME280;10712;52.944;9.098;2023-12-14T06:34:50;101285.47;;;12.28;71.61
21109;BME280;10712;52.944;9.098;2023-12-14T06:37:17;101281.06;;;12.27;71.68
21109;BME280;10712;52.944;9.098;2023-12-14T06:39:43;101287.13;;;12.31;71.65
21109;BME280;10712;52.944;9.098;2023-12-14T06:42:09;101298.63;;;12.31;71.54
21109;BME280;10712;52.944;9.098;2023-12-14T06:44:34;101296.94;;;12.30;71.52
21109;BME280;10712;52.944;9.098;2023-12-14T06:47:01;101308.38;;;12.32;71.70
21109;BME280;10712;52.944;9.098;2023-12-14T06:49:26;101306.25;;;12.23;71.76
21109;BME280;10712;52.944;9.098;2023-12-14T06:51:52;101309.44;;;12.30;71.62
21109;BME280;10712;52.944;9.098;2023-12-14T06:54:18;101306.56;;;12.33;71.60
21109;BME280;10712;52.944;9.098;2023-12-14T06:56:44;101321.59;;;12.35;71.52
21109;BME280;10712;52.944;9.098;2023-12-14T06:59:10;101311.75;;;12.36;71.64
21109;BME280;10712;52.944;9.098;2023-12-14T07:01:36;101312.78;;;12.33;71.56
21109;BME280;10712;52.944;9.098;2023-12-14T07:04:02;101326.91;;;12.35;71.53
21109;BME280;10712;52.944;9.098;2023-12-14T07:06:30;101332.28;;;12.35;71.59
21109;BME280;10712;52.944;9.098;2023-12-14T07:08:56;101332.84;;;12.40;71.49
21109;BME280;10712;52.944;9.098;2023-12-14T07:11:22;101336.56;;;12.38;71.39
21109;BME280;10712;52.944;9.098;2023-12-14T07:13:48;101343.75;;;12.37;71.24
21109;BME280;10712;52.944;9.098;2023-12-14T07:16:14;101347.44;;;12.35;71.16
21109;BME280;10712;52.944;9.098;2023-12-14T07:18:41;101349.09;;;12.37;71.16
21109;BME280;10712;52.944;9.098;2023-12-14T07:21:08;101358.63;;;12.41;71.04
21109;BME280;10712;52.944;9.098;2023-12-14T07:23:35;101365.72;;;12.42;70.88
21109;BME280;10712;52.944;9.098;2023-12-14T07:26:02;101374.50;;;12.44;70.79
21109;BME280;10712;52.944;9.098;2023-12-14T07:28:28;101363.72;;;12.46;71.05
21109;BME280;10712;52.944;9.098;2023-12-14T07:30:54;101377.41;;;12.40;71.06
21109;BME280;10712;52.944;9.098;2023-12-14T07:33:20;101381.41;;;12.48;70.68
21109;BME280;10712;52.944;9.098;2023-12-14T07:35:46;101388.47;;;12.49;70.79
21109;BME280;10712;52.944;9.098;2023-12-14T07:38:13;101387.44;;;12.36;70.80
21109;BME280;10712;52.944;9.098;2023-12-14T07:40:39;101394.16;;;12.43;70.42
21109;BME280;10712;52.944;9.098;2023-12-14T07:43:06;101405.44;;;12.48;70.48
21109;BME280;10712;52.944;9.098;2023-12-14T07:45:31;101407.09;;;12.51;70.73
21109;BME280;10712;52.944;9.098;2023-12-14T07:47:57;101414.06;;;12.53;70.45
21109;BME280;10712;52.944;9.098;2023-12-14T07:50:24;101413.31;;;12.51;70.32
21109;BME280;10712;52.944;9.098;2023-12-14T07:52:50;101423.03;;;12.52;70.40
21109;BME280;10712;52.944;9.098;2023-12-14T07:55:16;101421.75;;;12.59;70.30
21109;BME280;10712;52.944;9.098;2023-12-14T07:57:43;101429.94;;;12.56;70.38
21109;BME280;10712;52.944;9.098;2023-12-14T08:00:09;101437.03;;;12.57;70.45
21109;BME280;10712;52.944;9.098;2023-12-14T08:02:36;101438.91;;;12.55;70.65
21109;BME280;10712;52.944;9.098;2023-12-14T08:05:03;101445.03;;;12.57;70.68
21109;BME280;10712;52.944;9.098;2023-12-14T08:07:31;101450.19;;;12.60;70.69
21109;BME280;10712;52.944;9.098;2023-12-14T08:09:57;101458.22;;;12.60;70.86
21109;BME280;10712;52.944;9.098;2023-12-14T08:12:23;101460.22;;;12.57;71.13
21109;BME280;10712;52.944;9.098;2023-12-14T08:14:50;101465.28;;;12.61;71.02
21109;BME280;10712;52.944;9.098;2023-12-14T08:17:16;101460.09;;;12.58;71.24
21109;BME280;10712;52.944;9.098;2023-12-14T08:19:43;101477.72;;;12.62;71.25
21109;BME280;10712;52.944;9.098;2023-12-14T08:22:10;101478.66;;;12.61;71.43
21109;BME280;10712;52.944;9.098;2023-12-14T08:24:44;101479.53;;;12.62;71.34
21109;BME280;10712;52.944;9.098;2023-12-14T08:27:10;101483.22;;;12.59;71.51
21109;BME280;10712;52.944;9.098;2023-12-14T08:29:35;101489.34;;;12.61;71.61
21109;BME280;10712;52.944;9.098;2023-12-14T08:32:01;101489.34;;;12.61;71.78
21109;BME280;10712;52.944;9.098;2023-12-14T08:34:28;101494.84;;;12.58;71.88
21109;BME280;10712;52.944;9.098;2023-12-14T08:36:54;101485.75;;;12.62;71.69
21109;BME280;10712;52.944;9.098;2023-12-14T08:39:20;101489.34;;;12.61;71.69
21109;BME280;10712;52.944;9.098;2023-12-14T08:41:46;101499.72;;;12.68;71.91
21109;BME280;10712;52.944;9.098;2023-12-14T08:44:14;101505.53;;;12.58;72.51
21109;BME280;10712;52.944;9.098;2023-12-14T08:46:43;101496.44;;;12.62;72.21
21109;BME280;10712;52.944;9.098;2023-12-14T08:49:13;101498.75;;;12.69;72.05
21109;BME280;10712;52.944;9.098;2023-12-14T08:51:39;101498.75;;;12.69;72.22
21109;BME280;10712;52.944;9.098;2023-12-14T08:54:06;101506.78;;;12.69;72.43
21109;BME280;10712;52.944;9.098;2023-12-14T08:56:32;101513.69;;;12.73;72.13
21109;BME280;10712;52.944;9.098;2023-12-14T08:58:58;101514.66;;;12.72;72.12
21109;BME280;10712;52.944;9.098;2023-12-14T09:01:25;101516.97;;;12.78;72.31
21109;BME280;10712;52.944;9.098;2023-12-14T09:03:51;101525.94;;;12.77;72.29
21109;BME280;10712;52.944;9.098;2023-12-14T09:06:17;101524.22;;;12.76;72.19
21109;BME280;10712;52.944;9.098;2023-12-14T09:08:45;101531.91;;;12.82;72.26
21109;BME280;10712;52.944;9.098;2023-12-14T09:11:11;101530.63;;;12.89;72.03
21109;BME280;10712;52.944;9.098;2023-12-14T09:13:37;101533.91;;;12.78;72.22
21109;BME280;10712;52.944;9.098;2023-12-14T09:16:03;101535.28;;;12.85;72.14
21109;BME280;10712;52.944;9.098;2023-12-14T09:18:29;101546.84;;;12.86;72.05
21109;BME280;10712;52.944;9.098;2023-12-14T09:20:56;101550.28;;;12.88;72.16
21109;BME280;10712;52.944;9.098;2023-12-14T09:23:22;101549.06;;;12.93;71.92
21109;BME280;10712;52.944;9.098;2023-12-14T09:25:47;101548.38;;;12.90;72.00
21109;BME280;10712;52.944;9.098;2023-12-14T09:28:13;101549.22;;;12.75;72.47
21109;BME280;10712;52.944;9.098;2023-12-14T09:30:39;101554.88;;;12.86;72.12
21109;BME280;10712;52.944;9.098;2023-12-14T09:33:05;101551.16;;;12.88;72.36
21109;BME280;10712;52.944;9.098;2023-12-14T09:35:36;101556.69;;;12.85;72.20
21109;BME280;10712;52.944;9.098;2023-12-14T09:38:04;101548.53;;;12.87;72.14
21109;BME280;10712;52.944;9.098;2023-12-14T09:40:30;101558.16;;;12.91;72.10
21109;BME280;10712;52.944;9.098;2023-12-14T09:42:56;101560.63;;;12.94;72.00
21109;BME280;10712;52.944;9.098;2023-12-14T09:45:28;101569.63;;;12.93;71.96
21109;BME280;10712;52.944;9.098;2023-12-14T09:47:57;101573.59;;;13.01;71.85
21109;BME280;10712;52.944;9.098;2023-12-14T09:50:24;101586.22;;;12.99;71.82
21109;BME280;10712;52.944;9.098;2023-12-14T09:52:50;101584.28;;;13.01;71.81
21109;BME280;10712;52.944;9.098;2023-12-14T09:55:16;101585.75;;;12.91;71.96
21109;BME280;10712;52.944;9.098;2023-12-14T09:57:43;101590.84;;;12.96;71.95
21109;BME280;10712;52.944;9.098;2023-12-14T10:00:10;101601.38;;;12.99;71.93
21109;BME280;10712;52.944;9.098;2023-12-14T10:02:37;101599.47;;;13.01;72.07
21109;BME280;10712;52.944;9.098;2023-12-14T10:05:06;101604.66;;;13.04;71.99
21109;BME280;10712;52.944;9.098;2023-12-14T10:07:42;101605.69;;;12.86;72.20
21109;BME280;10712;52.944;9.098;2023-12-14T10:10:13;101625.00;;;12.91;72.26
21109;BME280;10712;52.944;9.098;2023-12-14T10:12:53;101621.22;;;12.95;72.26
21109;BME280;10712;52.944;9.098;2023-12-14T10:15:19;101620.25;;;12.96;72.23
21109;BME280;10712;52.944;9.098;2023-12-14T10:17:45;101620.25;;;12.96;72.33
21109;BME280;10712;52.944;9.098;2023-12-14T10:20:21;101625.88;;;12.91;72.39
21109;BME280;10712;52.944;9.098;2023-12-14T10:22:48;101639.78;;;12.98;72.02
21109;BME280;10712;52.944;9.098;2023-12-14T10:25:20;101642.94;;;12.89;72.24
21109;BME280;10712;52.944;9.098;2023-12-14T10:27:47;101639.94;;;12.95;72.02
21109;BME280;10712;52.944;9.098;2023-12-14T10:30:15;101647.81;;;12.98;72.04
21109;BME280;10712;52.944;9.098;2023-12-14T10:32:41;101646.94;;;12.97;72.22
21109;BME280;10712;52.944;9.098;2023-12-14T10:35:08;101652.22;;;12.99;72.11
21109;BME280;10712;52.944;9.098;2023-12-14T10:37:37;101654.03;;;12.98;71.98
21109;BME280;10712;52.944;9.098;2023-12-14T10:40:09;101655.66;;;13.01;72.07
21109;BME280;10712;52.944;9.098;2023-12-14T10:42:36;101663.66;;;13.01;72.12
21109;BME280;10712;52.944;9.098;2023-12-14T10:45:05;101658.84;;;13.08;72.09
21109;BME280;10712;52.944;9.098;2023-12-14T10:47:32;101657.22;;;13.05;72.15
21109;BME280;10712;52.944;9.098;2023-12-14T10:50:00;101664.63;;;13.17;71.71
21109;BME280;10712;52.944;9.098;2023-12-14T10:52:28;101664.75;;;13.14;71.79
21109;BME280;10712;52.944;9.098;2023-12-14T10:55:04;101666.34;;;13.18;71.55
21109;BME280;10712;52.944;9.098;2023-12-14T10:57:33;101669.97;;;13.17;71.62
21109;BME280;10712;52.944;9.098;2023-12-14T11:00:02;101673.44;;;13.19;71.41
21109;BME280;10712;52.944;9.098;2023-12-14T11:02:28;101673.75;;;13.13;71.32
21109;BME280;10712;52.944;9.098;2023-12-14T11:05:00;101680.66;;;13.17;71.22
21109;BME280;10712;52.944;9.098;2023-12-14T11:08:01;101676.88;;;13.21;71.58
21109;BME280;10712;52.944;9.098;2023-12-14T11:10:43;101678.44;;;13.25;71.62
21109;BME280;10712;52.944;9.098;2023-12-14T11:13:13;101671.97;;;13.29;71.68
21109;BME280;10712;52.944;9.098;2023-12-14T11:15:46;101670.75;;;13.35;71.72
21109;BME280;10712;52.944;9.098;2023-12-14T11:20:51;101677.50;;;13.26;71.59
21109;BME280;10712;52.944;9.098;2023-12-14T11:23:31;101686.06;;;13.33;71.81
21109;BME280;10712;52.944;9.098;2023-12-14T11:26:02;101681.38;;;13.36;71.60
21109;BME280;10712;52.944;9.098;2023-12-14T11:28:35;101688.66;;;13.34;71.64
21109;BME280;10712;52.944;9.098;2023-12-14T11:31:02;101695.91;;;13.32;71.53
21109;BME280;10712;52.944;9.098;2023-12-14T11:33:33;101698.50;;;13.34;71.50
21109;BME280;10712;52.944;9.098;2023-12-14T11:36:01;101706.25;;;13.38;71.58
21109;BME280;10712;52.944;9.098;2023-12-14T11:38:29;101708.16;;;13.36;71.60
21109;BME280;10712;52.944;9.098;2023-12-14T11:40:55;101708.16;;;13.36;71.48
21109;BME280;10712;52.944;9.098;2023-12-14T11:43:21;101709.88;;;13.37;71.65
21109;BME280;10712;52.944;9.098;2023-12-14T11:45:49;101716.09;;;13.38;71.50
21109;BME280;10712;52.944;9.098;2023-12-14T11:48:15;101711.53;;;13.40;71.61
21109;BME280;10712;52.944;9.098;2023-12-14T11:50:43;101724.53;;;13.30;71.74
21109;BME280;10712;52.944;9.098;2023-12-14T11:53:10;101728.16;;;13.29;71.50
21109;BME280;10712;52.944;9.098;2023-12-14T11:55:39;101727.94;;;13.34;71.46
21109;BME280;10712;52.944;9.098;2023-12-14T11:58:06;101720.84;;;13.33;71.23
21109;BME280;10712;52.944;9.098;2023-12-14T12:00:34;101721.06;;;13.28;71.25
21109;BME280;10712;52.944;9.098;2023-12-14T12:03:17;101718.41;;;13.28;71.15
21109;BME280;10712;52.944;9.098;2023-12-14T12:05:50;101729.91;;;13.30;71.05
21109;BME280;10712;52.944;9.098;2023-12-14T12:08:19;101723.44;;;13.34;70.85
21109;BME280;10712;52.944;9.098;2023-12-14T12:10:46;101730.22;;;13.24;70.62
21109;BME280;10712;52.944;9.098;2023-12-14T12:13:18;101733.03;;;13.38;70.53
21109;BME280;10712;52.944;9.098;2023-12-14T12:15:44;101737.53;;;13.38;70.80
21109;BME280;10712;52.944;9.098;2023-12-14T12:18:14;101743.06;;;13.51;70.43
21109;BME280;10712;52.944;9.098;2023-12-14T12:20:40;101733.63;;;13.44;70.95
21109;BME280;10712;52.944;9.098;2023-12-14T12:23:06;101744.81;;;13.52;70.56
21109;BME280;10712;52.944;9.098;2023-12-14T12:25:33;101738.19;;;13.41;70.81
21109;BME280;10712;52.944;9.098;2023-12-14T12:28:02;101734.59;;;13.43;70.26
21109;BME280;10712;52.944;9.098;2023-12-14T12:30:29;101737.78;;;13.49;70.10
21109;BME280;10712;52.944;9.098;2023-12-14T12:32:55;101748.41;;;13.51;70.86
21109;BME280;10712;52.944;9.098;2023-12-14T12:35:23;101739.09;;;13.58;70.42
21109;BME280;10712;52.944;9.098;2023-12-14T12:37:49;101739.91;;;13.60;70.41
21109;BME280;10712;52.944;9.098;2023-12-14T12:40:20;101738.31;;;13.56;70.50
21109;BME280;10712;52.944;9.098;2023-12-14T12:42:48;101741.97;;;13.55;70.50
21109;BME280;10712;52.944;9.098;2023-12-14T12:45:15;101740.84;;;13.59;70.79
21109;BME280;10712;52.944;9.098;2023-12-14T12:47:45;101741.31;;;13.34;70.29
21109;BME280;10712;52.944;9.098;2023-12-14T12:50:12;101740.03;;;13.57;69.72
21109;BME280;10712;52.944;9.098;2023-12-14T12:52:38;101740.16;;;13.55;69.58